Accueil
METAR-TAF:

METAR-TAF

Aéroports :

Ponape, Micronésie

Aéroport international de Pohnpei

latitude: 06-59N, longitude: 158-12E, altitude: 2 m

Observation

Le bulletin a été fait il y a 12 heures et 27 minutes, à 02:57 UTC
Température 31°C
Humidité 71%
Pression 1008 hPa
Visibilité: 24.1 km
Nuages épars à une hauteur de 1800 ft
Nuages épars à une hauteur de 13000 ft
Nuages fragmentés à une hauteur de 30000 ft

METAR: PTPN 230257Z 15SM SCT018 SCT130 BKN300 31/25 A2978 RMK LAST

Heure: 02:24 (15:24 UTC)

Prévision

Le bulletin a été fait il y a 15 heures et 47 minutes, à 23:37 UTC
Prévision valable du 23 à 00 UTC au 23 à 24 UTC
Vent 6 kt de est
Visibilité: 10 km
Quelques nuages à une hauteur de 1800 ft
Nuages épars à une hauteur de 12000 ft
averses à proximité

TAF: PTPN 222337Z 2300/2324 09006KT P6SM VCSH FEW018 SCT120

Observations et prévisions météorologiques de plus de 4000 aéroports (messages METAR et TAF).

Les stations disponibles sont représentées par des disques jaunes et rouges sur la carte.

Passer la souris dessus pour voir le nom de la station.

Cliquer dessus pour voir les observations et prévisions météorologiques.

Pour changer de carte: cliquez sur les boutons verts avec une croix noire pour zoomer, sur le bouton vert avec un tiret pour effectuer un zoom arrière, ou sur les flèches vertes pour les cartes adjacentes.


METAR-TAF: